sensor_id;sensor_type;location;lat;lon;timestamp;P1;durP1;ratioP1;P2;durP2;ratioP2
31674;SDS011;18276;45.520;11.018;2022-07-25T00:00:26;12.32;;;8.40;;
31674;SDS011;18276;45.520;11.018;2022-07-25T00:02:53;10.27;;;8.13;;
31674;SDS011;18276;45.520;11.018;2022-07-25T00:05:20;10.13;;;8.32;;
31674;SDS011;18276;45.520;11.018;2022-07-25T00:07:47;15.10;;;7.63;;
31674;SDS011;18276;45.520;11.018;2022-07-25T00:10:15;8.90;;;7.43;;
31674;SDS011;18276;45.520;11.018;2022-07-25T00:12:42;10.18;;;7.72;;
31674;SDS011;18276;45.520;11.018;2022-07-25T00:15:10;10.60;;;8.15;;
31674;SDS011;18276;45.520;11.018;2022-07-25T00:17:38;10.10;;;7.63;;
31674;SDS011;18276;45.520;11.018;2022-07-25T00:20:05;14.02;;;7.90;;
31674;SDS011;18276;45.520;11.018;2022-07-25T00:22:33;11.27;;;8.02;;
31674;SDS011;18276;45.520;11.018;2022-07-25T00:25:00;9.73;;;8.38;;
31674;SDS011;18276;45.520;11.018;2022-07-25T00:27:27;10.18;;;8.43;;
31674;SDS011;18276;45.520;11.018;2022-07-25T00:29:55;14.43;;;8.40;;
31674;SDS011;18276;45.520;11.018;2022-07-25T00:32:21;16.38;;;8.20;;
31674;SDS011;18276;45.520;11.018;2022-07-25T00:34:48;13.93;;;8.68;;
31674;SDS011;18276;45.520;11.018;2022-07-25T00:37:15;10.93;;;7.90;;
31674;SDS011;18276;45.520;11.018;2022-07-25T00:39:42;10.48;;;8.13;;
31674;SDS011;18276;45.520;11.018;2022-07-25T00:42:09;11.00;;;8.15;;
31674;SDS011;18276;45.520;11.018;2022-07-25T00:44:36;13.50;;;8.52;;
31674;SDS011;18276;45.520;11.018;2022-07-25T00:47:03;9.07;;;8.05;;
31674;SDS011;18276;45.520;11.018;2022-07-25T00:49:31;10.85;;;7.70;;
31674;SDS011;18276;45.520;11.018;2022-07-25T00:51:59;15.10;;;9.10;;
31674;SDS011;18276;45.520;11.018;2022-07-25T00:54:26;11.00;;;8.45;;
31674;SDS011;18276;45.520;11.018;2022-07-25T00:56:55;10.18;;;7.80;;
31674;SDS011;18276;45.520;11.018;2022-07-25T00:59:22;14.25;;;8.90;;
31674;SDS011;18276;45.520;11.018;2022-07-25T01:01:49;9.55;;;8.50;;
31674;SDS011;18276;45.520;11.018;2022-07-25T01:04:16;11.13;;;7.88;;
31674;SDS011;18276;45.520;11.018;2022-07-25T01:06:43;13.02;;;8.70;;
31674;SDS011;18276;45.520;11.018;2022-07-25T01:09:11;10.40;;;7.97;;
31674;SDS011;18276;45.520;11.018;2022-07-25T01:11:38;15.05;;;8.60;;
31674;SDS011;18276;45.520;11.018;2022-07-25T01:14:05;10.50;;;8.27;;
31674;SDS011;18276;45.520;11.018;2022-07-25T01:16:33;11.32;;;8.02;;
31674;SDS011;18276;45.520;11.018;2022-07-25T01:19:00;13.15;;;8.35;;
31674;SDS011;18276;45.520;11.018;2022-07-25T01:21:27;15.93;;;8.90;;
31674;SDS011;18276;45.520;11.018;2022-07-25T01:23:55;12.32;;;8.43;;
31674;SDS011;18276;45.520;11.018;2022-07-25T01:26:22;13.40;;;8.30;;
31674;SDS011;18276;45.520;11.018;2022-07-25T01:28:49;15.43;;;8.65;;
31674;SDS011;18276;45.520;11.018;2022-07-25T01:31:16;13.00;;;8.07;;
31674;SDS011;18276;45.520;11.018;2022-07-25T01:33:43;14.90;;;9.38;;
31674;SDS011;18276;45.520;11.018;2022-07-25T01:36:10;12.65;;;8.63;;
31674;SDS011;18276;45.520;11.018;2022-07-25T01:38:37;15.57;;;8.18;;
31674;SDS011;18276;45.520;11.018;2022-07-25T01:41:04;15.23;;;8.30;;
31674;SDS011;18276;45.520;11.018;2022-07-25T01:43:32;13.77;;;8.35;;
31674;SDS011;18276;45.520;11.018;2022-07-25T01:45:59;17.60;;;7.88;;
31674;SDS011;18276;45.520;11.018;2022-07-25T01:48:26;11.18;;;8.35;;
31674;SDS011;18276;45.520;11.018;2022-07-25T01:50:53;14.43;;;8.75;;
31674;SDS011;18276;45.520;11.018;2022-07-25T01:53:22;10.48;;;8.38;;
31674;SDS011;18276;45.520;11.018;2022-07-25T01:55:51;10.38;;;8.65;;
31674;SDS011;18276;45.520;11.018;2022-07-25T01:58:19;10.15;;;7.80;;
31674;SDS011;18276;45.520;11.018;2022-07-25T02:00:47;11.43;;;8.45;;
31674;SDS011;18276;45.520;11.018;2022-07-25T02:03:14;15.80;;;8.63;;
31674;SDS011;18276;45.520;11.018;2022-07-25T02:05:59;12.50;;;8.95;;
31674;SDS011;18276;45.520;11.018;2022-07-25T02:08:28;10.93;;;8.82;;
31674;SDS011;18276;45.520;11.018;2022-07-25T02:10:56;12.57;;;8.18;;
31674;SDS011;18276;45.520;11.018;2022-07-25T02:13:24;13.27;;;8.68;;
31674;SDS011;18276;45.520;11.018;2022-07-25T02:15:52;9.52;;;8.38;;
31674;SDS011;18276;45.520;11.018;2022-07-25T02:18:19;11.40;;;9.10;;
31674;SDS011;18276;45.520;11.018;2022-07-25T02:20:47;11.02;;;8.55;;
31674;SDS011;18276;45.520;11.018;2022-07-25T02:23:14;15.18;;;8.60;;
31674;SDS011;18276;45.520;11.018;2022-07-25T02:25:41;9.82;;;8.00;;
31674;SDS011;18276;45.520;11.018;2022-07-25T02:28:08;11.23;;;8.77;;
31674;SDS011;18276;45.520;11.018;2022-07-25T02:30:36;14.52;;;8.68;;
31674;SDS011;18276;45.520;11.018;2022-07-25T02:33:03;9.23;;;8.07;;
31674;SDS011;18276;45.520;11.018;2022-07-25T02:35:31;9.90;;;8.57;;
31674;SDS011;18276;45.520;11.018;2022-07-25T02:37:58;10.27;;;9.18;;
31674;SDS011;18276;45.520;11.018;2022-07-25T02:40:26;12.55;;;9.05;;
31674;SDS011;18276;45.520;11.018;2022-07-25T02:42:53;23.15;;;9.10;;
31674;SDS011;18276;45.520;11.018;2022-07-25T02:45:20;13.88;;;8.90;;
31674;SDS011;18276;45.520;11.018;2022-07-25T02:47:47;10.38;;;8.98;;
31674;SDS011;18276;45.520;11.018;2022-07-25T02:50:14;9.85;;;8.82;;
31674;SDS011;18276;45.520;11.018;2022-07-25T02:52:42;11.93;;;9.20;;
31674;SDS011;18276;45.520;11.018;2022-07-25T02:55:09;13.15;;;9.27;;
31674;SDS011;18276;45.520;11.018;2022-07-25T02:57:37;13.68;;;8.15;;
31674;SDS011;18276;45.520;11.018;2022-07-25T03:00:05;15.27;;;8.23;;
31674;SDS011;18276;45.520;11.018;2022-07-25T03:02:33;14.05;;;8.80;;
31674;SDS011;18276;45.520;11.018;2022-07-25T03:05:01;15.68;;;9.50;;
31674;SDS011;18276;45.520;11.018;2022-07-25T03:07:30;13.52;;;8.85;;
31674;SDS011;18276;45.520;11.018;2022-07-25T03:09:57;11.15;;;9.25;;
31674;SDS011;18276;45.520;11.018;2022-07-25T03:12:24;9.48;;;8.52;;
31674;SDS011;18276;45.520;11.018;2022-07-25T03:14:51;12.77;;;8.63;;
31674;SDS011;18276;45.520;11.018;2022-07-25T03:17:18;17.38;;;8.73;;
31674;SDS011;18276;45.520;11.018;2022-07-25T03:19:45;13.35;;;8.50;;
31674;SDS011;18276;45.520;11.018;2022-07-25T03:22:12;11.93;;;9.23;;
31674;SDS011;18276;45.520;11.018;2022-07-25T03:24:40;12.77;;;9.00;;
31674;SDS011;18276;45.520;11.018;2022-07-25T03:27:07;16.35;;;9.48;;
31674;SDS011;18276;45.520;11.018;2022-07-25T03:29:34;14.40;;;8.63;;
31674;SDS011;18276;45.520;11.018;2022-07-25T03:32:01;14.15;;;9.15;;
31674;SDS011;18276;45.520;11.018;2022-07-25T03:34:28;14.65;;;8.70;;
31674;SDS011;18276;45.520;11.018;2022-07-25T03:36:56;11.80;;;9.10;;
31674;SDS011;18276;45.520;11.018;2022-07-25T03:39:23;14.18;;;8.75;;
31674;SDS011;18276;45.520;11.018;2022-07-25T03:41:50;13.80;;;8.55;;
31674;SDS011;18276;45.520;11.018;2022-07-25T03:44:18;12.45;;;8.82;;
31674;SDS011;18276;45.520;11.018;2022-07-25T03:46:46;13.65;;;9.25;;
31674;SDS011;18276;45.520;11.018;2022-07-25T03:49:14;10.50;;;8.60;;
31674;SDS011;18276;45.520;11.018;2022-07-25T03:51:41;11.02;;;9.63;;
31674;SDS011;18276;45.520;11.018;2022-07-25T03:54:09;12.32;;;8.63;;
31674;SDS011;18276;45.520;11.018;2022-07-25T03:56:40;15.50;;;8.60;;
31674;SDS011;18276;45.520;11.018;2022-07-25T03:59:10;19.15;;;9.63;;
31674;SDS011;18276;45.520;11.018;2022-07-25T04:01:39;16.42;;;9.32;;
31674;SDS011;18276;45.520;11.018;2022-07-25T04:04:07;17.38;;;8.82;;
31674;SDS011;18276;45.520;11.018;2022-07-25T04:06:36;18.92;;;9.63;;
31674;SDS011;18276;45.520;11.018;2022-07-25T04:09:03;16.88;;;8.98;;
31674;SDS011;18276;45.520;11.018;2022-07-25T04:11:31;14.77;;;8.90;;
31674;SDS011;18276;45.520;11.018;2022-07-25T04:13:58;11.15;;;9.35;;
31674;SDS011;18276;45.520;11.018;2022-07-25T04:16:25;12.45;;;8.10;;
31674;SDS011;18276;45.520;11.018;2022-07-25T04:18:53;18.13;;;9.85;;
31674;SDS011;18276;45.520;11.018;2022-07-25T04:21:22;17.02;;;9.98;;
31674;SDS011;18276;45.520;11.018;2022-07-25T04:23:50;22.23;;;10.52;;
31674;SDS011;18276;45.520;11.018;2022-07-25T04:26:18;15.35;;;9.48;;
31674;SDS011;18276;45.520;11.018;2022-07-25T04:28:45;14.60;;;9.50;;
31674;SDS011;18276;45.520;11.018;2022-07-25T04:31:13;11.85;;;8.98;;
31674;SDS011;18276;45.520;11.018;2022-07-25T04:33:40;22.92;;;10.50;;
31674;SDS011;18276;45.520;11.018;2022-07-25T04:36:08;29.55;;;9.88;;
31674;SDS011;18276;45.520;11.018;2022-07-25T04:38:35;21.00;;;10.05;;
31674;SDS011;18276;45.520;11.018;2022-07-25T04:41:02;21.80;;;9.55;;
31674;SDS011;18276;45.520;11.018;2022-07-25T04:43:30;22.55;;;9.70;;
31674;SDS011;18276;45.520;11.018;2022-07-25T04:45:57;15.95;;;9.15;;
31674;SDS011;18276;45.520;11.018;2022-07-25T04:48:25;27.30;;;9.48;;
31674;SDS011;18276;45.520;11.018;2022-07-25T04:50:52;14.00;;;9.52;;
31674;SDS011;18276;45.520;11.018;2022-07-25T04:53:19;24.15;;;10.77;;
31674;SDS011;18276;45.520;11.018;2022-07-25T04:55:46;16.55;;;9.50;;
31674;SDS011;18276;45.520;11.018;2022-07-25T04:58:13;25.33;;;9.88;;
31674;SDS011;18276;45.520;11.018;2022-07-25T05:00:41;17.13;;;9.50;;
31674;SDS011;18276;45.520;11.018;2022-07-25T05:03:08;23.90;;;11.13;;
31674;SDS011;18276;45.520;11.018;2022-07-25T05:05:35;14.85;;;9.32;;
31674;SDS011;18276;45.520;11.018;2022-07-25T05:08:03;19.38;;;9.05;;
31674;SDS011;18276;45.520;11.018;2022-07-25T05:10:30;13.75;;;9.57;;
31674;SDS011;18276;45.520;11.018;2022-07-25T05:12:57;15.98;;;9.82;;
31674;SDS011;18276;45.520;11.018;2022-07-25T05:15:24;18.10;;;9.77;;
31674;SDS011;18276;45.520;11.018;2022-07-25T05:17:51;15.32;;;9.45;;
31674;SDS011;18276;45.520;11.018;2022-07-25T05:20:18;20.13;;;8.45;;
31674;SDS011;18276;45.520;11.018;2022-07-25T05:22:45;13.75;;;8.85;;
31674;SDS011;18276;45.520;11.018;2022-07-25T05:25:12;17.05;;;9.43;;
31674;SDS011;18276;45.520;11.018;2022-07-25T05:27:39;19.38;;;9.55;;
31674;SDS011;18276;45.520;11.018;2022-07-25T05:30:07;17.08;;;9.85;;
31674;SDS011;18276;45.520;11.018;2022-07-25T05:32:35;20.73;;;9.80;;
31674;SDS011;18276;45.520;11.018;2022-07-25T05:35:03;15.60;;;8.98;;
31674;SDS011;18276;45.520;11.018;2022-07-25T05:37:33;19.70;;;8.95;;
31674;SDS011;18276;45.520;11.018;2022-07-25T05:40:01;25.17;;;9.10;;
31674;SDS011;18276;45.520;11.018;2022-07-25T05:42:29;17.52;;;9.80;;
31674;SDS011;18276;45.520;11.018;2022-07-25T05:44:56;14.98;;;9.50;;
31674;SDS011;18276;45.520;11.018;2022-07-25T05:47:23;17.05;;;9.73;;
31674;SDS011;18276;45.520;11.018;2022-07-25T05:49:51;14.55;;;9.02;;
31674;SDS011;18276;45.520;11.018;2022-07-25T05:52:18;16.92;;;9.52;;
31674;SDS011;18276;45.520;11.018;2022-07-25T05:54:45;15.30;;;8.57;;
31674;SDS011;18276;45.520;11.018;2022-07-25T05:57:12;14.57;;;9.23;;
31674;SDS011;18276;45.520;11.018;2022-07-25T05:59:39;13.70;;;8.23;;
31674;SDS011;18276;45.520;11.018;2022-07-25T06:02:06;21.30;;;9.05;;
31674;SDS011;18276;45.520;11.018;2022-07-25T06:04:33;16.90;;;9.52;;
31674;SDS011;18276;45.520;11.018;2022-07-25T06:07:00;17.08;;;8.32;;
31674;SDS011;18276;45.520;11.018;2022-07-25T06:09:27;13.55;;;8.23;;
31674;SDS011;18276;45.520;11.018;2022-07-25T06:11:57;14.10;;;8.73;;
31674;SDS011;18276;45.520;11.018;2022-07-25T06:14:27;15.70;;;8.20;;
31674;SDS011;18276;45.520;11.018;2022-07-25T06:16:55;13.20;;;8.55;;
31674;SDS011;18276;45.520;11.018;2022-07-25T06:19:22;39.40;;;11.48;;
31674;SDS011;18276;45.520;11.018;2022-07-25T06:21:49;21.65;;;9.30;;
31674;SDS011;18276;45.520;11.018;2022-07-25T06:24:16;16.67;;;9.43;;
31674;SDS011;18276;45.520;11.018;2022-07-25T06:26:43;13.93;;;8.70;;
31674;SDS011;18276;45.520;11.018;2022-07-25T06:29:10;18.58;;;9.60;;
31674;SDS011;18276;45.520;11.018;2022-07-25T06:31:37;27.13;;;9.57;;
31674;SDS011;18276;45.520;11.018;2022-07-25T06:34:05;43.00;;;10.52;;
31674;SDS011;18276;45.520;11.018;2022-07-25T06:36:33;28.90;;;9.57;;
31674;SDS011;18276;45.520;11.018;2022-07-25T06:39:00;34.90;;;10.80;;
31674;SDS011;18276;45.520;11.018;2022-07-25T06:41:27;37.15;;;11.07;;
31674;SDS011;18276;45.520;11.018;2022-07-25T06:43:54;23.38;;;9.38;;
31674;SDS011;18276;45.520;11.018;2022-07-25T06:46:21;20.92;;;8.38;;
31674;SDS011;18276;45.520;11.018;2022-07-25T06:48:49;22.98;;;9.00;;
31674;SDS011;18276;45.520;11.018;2022-07-25T06:51:16;21.42;;;9.32;;
31674;SDS011;18276;45.520;11.018;2022-07-25T06:53:43;18.98;;;9.77;;
31674;SDS011;18276;45.520;11.018;2022-07-25T06:56:10;15.88;;;8.82;;
31674;SDS011;18276;45.520;11.018;2022-07-25T06:58:42;11.80;;;8.77;;
31674;SDS011;18276;45.520;11.018;2022-07-25T07:01:09;15.05;;;9.10;;
31674;SDS011;18276;45.520;11.018;2022-07-25T07:03:37;11.23;;;8.80;;
31674;SDS011;18276;45.520;11.018;2022-07-25T07:06:06;18.38;;;8.25;;
31674;SDS011;18276;45.520;11.018;2022-07-25T07:08:34;10.57;;;8.38;;
31674;SDS011;18276;45.520;11.018;2022-07-25T07:11:01;12.85;;;8.40;;
31674;SDS011;18276;45.520;11.018;2022-07-25T07:13:29;15.77;;;8.20;;
31674;SDS011;18276;45.520;11.018;2022-07-25T07:15:56;12.13;;;8.20;;
31674;SDS011;18276;45.520;11.018;2022-07-25T07:18:23;11.60;;;7.88;;
31674;SDS011;18276;45.520;11.018;2022-07-25T07:20:51;13.52;;;8.52;;
31674;SDS011;18276;45.520;11.018;2022-07-25T07:23:18;11.63;;;9.25;;
31674;SDS011;18276;45.520;11.018;2022-07-25T07:25:45;12.70;;;9.27;;
31674;SDS011;18276;45.520;11.018;2022-07-25T07:28:13;17.73;;;8.88;;
31674;SDS011;18276;45.520;11.018;2022-07-25T07:30:41;11.23;;;8.85;;
31674;SDS011;18276;45.520;11.018;2022-07-25T07:33:28;12.93;;;8.73;;
31674;SDS011;18276;45.520;11.018;2022-07-25T07:35:55;16.27;;;9.10;;
31674;SDS011;18276;45.520;11.018;2022-07-25T07:38:23;12.82;;;8.25;;
31674;SDS011;18276;45.520;11.018;2022-07-25T07:40:51;10.95;;;8.40;;
31674;SDS011;18276;45.520;11.018;2022-07-25T07:43:19;13.27;;;7.93;;
31674;SDS011;18276;45.520;11.018;2022-07-25T07:45:50;11.35;;;8.38;;
31674;SDS011;18276;45.520;11.018;2022-07-25T07:48:17;13.20;;;8.88;;
31674;SDS011;18276;45.520;11.018;2022-07-25T07:50:44;12.65;;;8.68;;
31674;SDS011;18276;45.520;11.018;2022-07-25T07:53:11;14.85;;;8.23;;
31674;SDS011;18276;45.520;11.018;2022-07-25T07:55:38;9.63;;;8.35;;
31674;SDS011;18276;45.520;11.018;2022-07-25T07:58:11;13.80;;;9.40;;
31674;SDS011;18276;45.520;11.018;2022-07-25T08:00:41;12.20;;;7.78;;
31674;SDS011;18276;45.520;11.018;2022-07-25T08:03:09;19.70;;;8.65;;
31674;SDS011;18276;45.520;11.018;2022-07-25T08:05:38;12.20;;;8.75;;
31674;SDS011;18276;45.520;11.018;2022-07-25T08:08:08;9.88;;;7.65;;
31674;SDS011;18276;45.520;11.018;2022-07-25T08:10:40;10.63;;;7.82;;
31674;SDS011;18276;45.520;11.018;2022-07-25T08:13:17;13.15;;;8.10;;
31674;SDS011;18276;45.520;11.018;2022-07-25T08:15:50;8.48;;;7.57;;
31674;SDS011;18276;45.520;11.018;2022-07-25T08:18:23;10.73;;;7.38;;
31674;SDS011;18276;45.520;11.018;2022-07-25T08:20:51;13.90;;;7.82;;
31674;SDS011;18276;45.520;11.018;2022-07-25T08:23:18;8.75;;;7.60;;
31674;SDS011;18276;45.520;11.018;2022-07-25T08:25:45;14.88;;;7.90;;
31674;SDS011;18276;45.520;11.018;2022-07-25T08:28:13;8.30;;;7.45;;
31674;SDS011;18276;45.520;11.018;2022-07-25T08:30:40;13.75;;;7.25;;
31674;SDS011;18276;45.520;11.018;2022-07-25T08:33:08;9.10;;;7.75;;
31674;SDS011;18276;45.520;11.018;2022-07-25T08:35:38;10.45;;;7.88;;
31674;SDS011;18276;45.520;11.018;2022-07-25T08:38:07;8.38;;;7.35;;
31674;SDS011;18276;45.520;11.018;2022-07-25T08:40:37;10.80;;;7.85;;
31674;SDS011;18276;45.520;11.018;2022-07-25T08:43:04;11.70;;;8.23;;
31674;SDS011;18276;45.520;11.018;2022-07-25T08:45:31;12.93;;;8.00;;
31674;SDS011;18276;45.520;11.018;2022-07-25T08:47:59;11.13;;;7.65;;
31674;SDS011;18276;45.520;11.018;2022-07-25T08:50:27;11.77;;;8.13;;
31674;SDS011;18276;45.520;11.018;2022-07-25T08:52:55;10.60;;;7.88;;
31674;SDS011;18276;45.520;11.018;2022-07-25T08:55:42;12.43;;;7.95;;
31674;SDS011;18276;45.520;11.018;2022-07-25T08:58:11;10.02;;;8.10;;
31674;SDS011;18276;45.520;11.018;2022-07-25T09:00:40;11.15;;;7.82;;
31674;SDS011;18276;45.520;11.018;2022-07-25T09:03:08;9.73;;;7.68;;
31674;SDS011;18276;45.520;11.018;2022-07-25T09:05:36;10.65;;;7.80;;
31674;SDS011;18276;45.520;11.018;2022-07-25T09:08:11;15.77;;;8.10;;
31674;SDS011;18276;45.520;11.018;2022-07-25T09:10:44;8.45;;;7.55;;
31674;SDS011;18276;45.520;11.018;2022-07-25T09:13:16;9.32;;;8.32;;
31674;SDS011;18276;45.520;11.018;2022-07-25T09:15:49;9.75;;;7.57;;
31674;SDS011;18276;45.520;11.018;2022-07-25T09:18:21;11.43;;;7.93;;
31674;SDS011;18276;45.520;11.018;2022-07-25T09:20:52;9.35;;;7.47;;
31674;SDS011;18276;45.520;11.018;2022-07-25T09:23:28;8.05;;;7.25;;
31674;SDS011;18276;45.520;11.018;2022-07-25T09:26:03;11.73;;;7.32;;
31674;SDS011;18276;45.520;11.018;2022-07-25T09:29:06;8.45;;;7.53;;
31674;SDS011;18276;45.520;11.018;2022-07-25T09:31:30;10.95;;;7.00;;
31674;SDS011;18276;45.520;11.018;2022-07-25T09:33:58;10.38;;;7.53;;
31674;SDS011;18276;45.520;11.018;2022-07-25T09:36:26;10.73;;;7.22;;
31674;SDS011;18276;45.520;11.018;2022-07-25T09:38:54;10.55;;;7.35;;
31674;SDS011;18276;45.520;11.018;2022-07-25T09:41:36;8.40;;;7.43;;
31674;SDS011;18276;45.520;11.018;2022-07-25T09:44:14;10.02;;;7.53;;
31674;SDS011;18276;45.520;11.018;2022-07-25T09:46:43;9.85;;;7.93;;
31674;SDS011;18276;45.520;11.018;2022-07-25T09:49:10;10.63;;;8.20;;
31674;SDS011;18276;45.520;11.018;2022-07-25T09:51:40;9.40;;;7.75;;
31674;SDS011;18276;45.520;11.018;2022-07-25T09:54:08;10.73;;;8.23;;
31674;SDS011;18276;45.520;11.018;2022-07-25T09:56:35;9.30;;;8.18;;
31674;SDS011;18276;45.520;11.018;2022-07-25T09:59:03;8.63;;;7.80;;
31674;SDS011;18276;45.520;11.018;2022-07-25T10:01:34;11.18;;;8.13;;
31674;SDS011;18276;45.520;11.018;2022-07-25T10:06:51;9.82;;;7.60;;
31674;SDS011;18276;45.520;11.018;2022-07-25T10:09:42;10.15;;;6.93;;
31674;SDS011;18276;45.520;11.018;2022-07-25T10:12:17;10.27;;;7.30;;
31674;SDS011;18276;45.520;11.018;2022-07-25T10:17:48;11.52;;;7.28;;
31674;SDS011;18276;45.520;11.018;2022-07-25T10:20:27;10.48;;;8.10;;
31674;SDS011;18276;45.520;11.018;2022-07-25T10:22:54;12.00;;;8.05;;
31674;SDS011;18276;45.520;11.018;2022-07-25T10:25:23;10.93;;;8.25;;
31674;SDS011;18276;45.520;11.018;2022-07-25T10:27:57;9.00;;;7.60;;
31674;SDS011;18276;45.520;11.018;2022-07-25T10:30:27;13.23;;;7.82;;
31674;SDS011;18276;45.520;11.018;2022-07-25T10:33:16;12.63;;;7.70;;
31674;SDS011;18276;45.520;11.018;2022-07-25T10:35:44;9.32;;;7.65;;
31674;SDS011;18276;45.520;11.018;2022-07-25T10:38:11;11.02;;;8.40;;
31674;SDS011;18276;45.520;11.018;2022-07-25T10:43:11;11.02;;;8.15;;
31674;SDS011;18276;45.520;11.018;2022-07-25T10:45:50;8.60;;;7.80;;
31674;SDS011;18276;45.520;11.018;2022-07-25T10:48:26;12.27;;;8.60;;
31674;SDS011;18276;45.520;11.018;2022-07-25T10:51:00;13.05;;;8.02;;
31674;SDS011;18276;45.520;11.018;2022-07-25T10:55:56;10.93;;;8.45;;
31674;SDS011;18276;45.520;11.018;2022-07-25T10:58:47;9.65;;;7.70;;
31674;SDS011;18276;45.520;11.018;2022-07-25T11:01:18;10.95;;;8.90;;
31674;SDS011;18276;45.520;11.018;2022-07-25T11:04:00;10.23;;;8.20;;
31674;SDS011;18276;45.520;11.018;2022-07-25T11:06:36;10.63;;;8.45;;
31674;SDS011;18276;45.520;11.018;2022-07-25T11:09:17;9.05;;;8.10;;
31674;SDS011;18276;45.520;11.018;2022-07-25T11:11:56;13.23;;;8.55;;
31674;SDS011;18276;45.520;11.018;2022-07-25T11:14:26;13.52;;;8.68;;
31674;SDS011;18276;45.520;11.018;2022-07-25T11:17:12;11.52;;;8.68;;
31674;SDS011;18276;45.520;11.018;2022-07-25T11:19:55;9.52;;;8.65;;
31674;SDS011;18276;45.520;11.018;2022-07-25T11:22:25;9.23;;;8.38;;
31674;SDS011;18276;45.520;11.018;2022-07-25T11:24:54;11.23;;;8.73;;
31674;SDS011;18276;45.520;11.018;2022-07-25T11:27:23;11.18;;;8.88;;
31674;SDS011;18276;45.520;11.018;2022-07-25T11:30:03;9.23;;;8.30;;
31674;SDS011;18276;45.520;11.018;2022-07-25T11:32:41;11.95;;;8.07;;
31674;SDS011;18276;45.520;11.018;2022-07-25T11:35:10;12.93;;;8.20;;
31674;SDS011;18276;45.520;11.018;2022-07-25T11:37:40;10.23;;;9.20;;
31674;SDS011;18276;45.520;11.018;2022-07-25T11:40:09;11.05;;;8.63;;
31674;SDS011;18276;45.520;11.018;2022-07-25T11:42:40;9.13;;;8.07;;
31674;SDS011;18276;45.520;11.018;2022-07-25T11:45:20;12.80;;;8.60;;
31674;SDS011;18276;45.520;11.018;2022-07-25T11:47:49;10.93;;;9.82;;
31674;SDS011;18276;45.520;11.018;2022-07-25T11:50:35;13.50;;;11.50;;
31674;SDS011;18276;45.520;11.018;2022-07-25T11:53:05;10.95;;;8.70;;
31674;SDS011;18276;45.520;11.018;2022-07-25T11:55:35;11.52;;;8.55;;
31674;SDS011;18276;45.520;11.018;2022-07-25T11:58:06;16.63;;;8.75;;
31674;SDS011;18276;45.520;11.018;2022-07-25T12:00:38;12.98;;;9.38;;
31674;SDS011;18276;45.520;11.018;2022-07-25T12:03:10;11.30;;;8.02;;
31674;SDS011;18276;45.520;11.018;2022-07-25T12:05:46;9.02;;;8.07;;
31674;SDS011;18276;45.520;11.018;2022-07-25T12:08:14;11.52;;;8.43;;
31674;SDS011;18276;45.520;11.018;2022-07-25T12:10:43;13.02;;;8.90;;
31674;SDS011;18276;45.520;11.018;2022-07-25T12:15:50;11.90;;;8.80;;
31674;SDS011;18276;45.520;11.018;2022-07-25T12:18:18;9.68;;;8.38;;
31674;SDS011;18276;45.520;11.018;2022-07-25T12:20:45;11.90;;;9.25;;
31674;SDS011;18276;45.520;11.018;2022-07-25T12:23:12;11.15;;;8.98;;
31674;SDS011;18276;45.520;11.018;2022-07-25T12:25:40;16.83;;;9.48;;
31674;SDS011;18276;45.520;11.018;2022-07-25T12:28:12;10.93;;;9.38;;
31674;SDS011;18276;45.520;11.018;2022-07-25T12:30:40;11.25;;;9.25;;
31674;SDS011;18276;45.520;11.018;2022-07-25T12:33:08;18.20;;;9.75;;
31674;SDS011;18276;45.520;11.018;2022-07-25T12:35:38;12.02;;;8.77;;
31674;SDS011;18276;45.520;11.018;2022-07-25T12:38:06;10.32;;;9.15;;
31674;SDS011;18276;45.520;11.018;2022-07-25T12:40:34;11.43;;;9.88;;
31674;SDS011;18276;45.520;11.018;2022-07-25T12:43:01;10.98;;;9.82;;
31674;SDS011;18276;45.520;11.018;2022-07-25T12:45:29;10.85;;;8.93;;
31674;SDS011;18276;45.520;11.018;2022-07-25T12:47:56;10.70;;;8.77;;
31674;SDS011;18276;45.520;11.018;2022-07-25T12:50:23;11.73;;;9.40;;
31674;SDS011;18276;45.520;11.018;2022-07-25T12:52:51;10.10;;;8.30;;
31674;SDS011;18276;45.520;11.018;2022-07-25T12:55:19;14.45;;;9.25;;
31674;SDS011;18276;45.520;11.018;2022-07-25T12:57:47;10.77;;;9.15;;
31674;SDS011;18276;45.520;11.018;2022-07-25T13:00:15;12.10;;;9.23;;
31674;SDS011;18276;45.520;11.018;2022-07-25T13:02:43;10.57;;;9.10;;
31674;SDS011;18276;45.520;11.018;2022-07-25T13:05:11;20.80;;;9.32;;
31674;SDS011;18276;45.520;11.018;2022-07-25T13:07:38;13.35;;;8.70;;
31674;SDS011;18276;45.520;11.018;2022-07-25T13:10:06;16.42;;;10.00;;
31674;SDS011;18276;45.520;11.018;2022-07-25T13:12:33;15.85;;;9.13;;
31674;SDS011;18276;45.520;11.018;2022-07-25T13:15:00;12.68;;;9.35;;
31674;SDS011;18276;45.520;11.018;2022-07-25T13:17:28;12.85;;;8.88;;
31674;SDS011;18276;45.520;11.018;2022-07-25T13:19:55;15.38;;;9.73;;
31674;SDS011;18276;45.520;11.018;2022-07-25T13:22:23;11.60;;;8.40;;
31674;SDS011;18276;45.520;11.018;2022-07-25T13:24:51;11.65;;;9.15;;
31674;SDS011;18276;45.520;11.018;2022-07-25T13:27:19;12.27;;;9.10;;
31674;SDS011;18276;45.520;11.018;2022-07-25T13:29:47;17.85;;;9.73;;
31674;SDS011;18276;45.520;11.018;2022-07-25T13:34:49;15.27;;;8.65;;
31674;SDS011;18276;45.520;11.018;2022-07-25T13:37:16;13.57;;;9.55;;
31674;SDS011;18276;45.520;11.018;2022-07-25T13:39:43;13.27;;;9.32;;
31674;SDS011;18276;45.520;11.018;2022-07-25T13:42:10;10.27;;;9.05;;
31674;SDS011;18276;45.520;11.018;2022-07-25T13:44:37;12.80;;;9.25;;
31674;SDS011;18276;45.520;11.018;2022-07-25T13:47:04;14.63;;;9.65;;
31674;SDS011;18276;45.520;11.018;2022-07-25T13:49:32;14.02;;;8.68;;
31674;SDS011;18276;45.520;11.018;2022-07-25T13:51:59;13.85;;;9.27;;
31674;SDS011;18276;45.520;11.018;2022-07-25T13:54:26;12.73;;;9.10;;
31674;SDS011;18276;45.520;11.018;2022-07-25T13:56:53;14.80;;;9.75;;
31674;SDS011;18276;45.520;11.018;2022-07-25T13:59:20;14.93;;;9.00;;
31674;SDS011;18276;45.520;11.018;2022-07-25T14:01:47;15.75;;;9.35;;
31674;SDS011;18276;45.520;11.018;2022-07-25T14:04:15;10.95;;;8.98;;
31674;SDS011;18276;45.520;11.018;2022-07-25T14:06:43;10.50;;;9.02;;
31674;SDS011;18276;45.520;11.018;2022-07-25T14:09:10;11.90;;;8.90;;
31674;SDS011;18276;45.520;11.018;2022-07-25T14:11:37;13.95;;;10.48;;
31674;SDS011;18276;45.520;11.018;2022-07-25T14:14:04;11.35;;;8.95;;
31674;SDS011;18276;45.520;11.018;2022-07-25T14:16:31;11.02;;;9.52;;
31674;SDS011;18276;45.520;11.018;2022-07-25T14:18:59;10.93;;;9.70;;
31674;SDS011;18276;45.520;11.018;2022-07-25T14:21:27;11.50;;;9.68;;
31674;SDS011;18276;45.520;11.018;2022-07-25T14:23:55;11.63;;;9.63;;
31674;SDS011;18276;45.520;11.018;2022-07-25T14:26:22;11.85;;;9.75;;
31674;SDS011;18276;45.520;11.018;2022-07-25T14:28:49;14.23;;;9.85;;
31674;SDS011;18276;45.520;11.018;2022-07-25T14:31:16;11.10;;;9.10;;
31674;SDS011;18276;45.520;11.018;2022-07-25T14:33:44;10.85;;;9.10;;
31674;SDS011;18276;45.520;11.018;2022-07-25T14:36:11;11.45;;;9.32;;
31674;SDS011;18276;45.520;11.018;2022-07-25T14:38:38;12.50;;;8.93;;
31674;SDS011;18276;45.520;11.018;2022-07-25T14:41:06;15.38;;;9.38;;
31674;SDS011;18276;45.520;11.018;2022-07-25T14:43:39;13.45;;;9.98;;
31674;SDS011;18276;45.520;11.018;2022-07-25T14:46:06;12.52;;;9.40;;
31674;SDS011;18276;45.520;11.018;2022-07-25T14:48:34;20.42;;;10.20;;